createdAt,value
2023-12-05T00:00:25.625Z,18.17
2023-12-05T00:03:28.400Z,18.63
2023-12-05T00:06:31.156Z,16.90
2023-12-05T00:09:35.192Z,15.57
2023-12-05T00:12:38.085Z,16.43
2023-12-05T00:15:40.736Z,17.30
2023-12-05T00:18:45.413Z,16.30
2023-12-05T00:21:48.225Z,16.80
2023-12-05T00:24:52.261Z,17.10
2023-12-05T00:27:54.926Z,17.20
2023-12-05T00:30:57.738Z,19.63
2023-12-05T00:34:00.476Z,18.33
2023-12-05T00:37:03.175Z,17.27
2023-12-05T00:40:08.845Z,19.30
2023-12-05T00:43:11.503Z,17.70
2023-12-05T00:46:14.146Z,18.80
2023-12-05T00:49:16.875Z,16.50
2023-12-05T00:52:19.575Z,18.77
2023-12-05T00:55:23.617Z,17.37
2023-12-05T00:58:26.304Z,19.23
2023-12-05T01:01:29.027Z,17.50
2023-12-05T01:04:32.605Z,20.67
2023-12-05T01:07:35.326Z,18.27
2023-12-05T01:10:39.449Z,16.70
2023-12-05T01:13:42.308Z,16.43
2023-12-05T01:16:45.328Z,16.73
2023-12-05T01:19:47.964Z,22.00
2023-12-05T01:22:50.712Z,19.07
2023-12-05T01:25:54.713Z,20.30
2023-12-05T01:28:57.634Z,18.30
2023-12-05T01:32:00.259Z,16.67
2023-12-05T01:35:02.921Z,16.50
2023-12-05T01:38:05.772Z,18.37
2023-12-05T01:41:09.898Z,16.87
2023-12-05T01:44:12.565Z,18.23
2023-12-05T01:47:17.453Z,21.13
2023-12-05T01:50:24.869Z,22.43
2023-12-05T01:53:27.846Z,19.00
2023-12-05T01:56:32.928Z,18.47
2023-12-05T01:59:35.615Z,16.57
2023-12-05T02:02:38.317Z,18.97
2023-12-05T02:05:41.157Z,20.93
2023-12-05T02:08:44.709Z,19.77
2023-12-05T02:11:48.735Z,22.47
2023-12-05T02:14:51.463Z,17.40
2023-12-05T02:18:01.654Z,19.47
2023-12-05T02:21:10.300Z,16.30
2023-12-05T02:24:41.306Z,20.07
2023-12-05T02:27:46.946Z,18.40
2023-12-05T02:30:49.723Z,20.67
2023-12-05T02:33:52.849Z,20.80
2023-12-05T02:37:06.073Z,23.53
2023-12-05T02:40:15.778Z,21.97
2023-12-05T02:43:23.329Z,22.03
2023-12-05T02:46:26.954Z,22.40
2023-12-05T02:49:29.909Z,17.73
2023-12-05T02:52:32.619Z,23.20
2023-12-05T02:55:35.621Z,22.37
2023-12-05T02:58:39.610Z,22.07
2023-12-05T03:01:42.383Z,22.20
2023-12-05T03:04:45.150Z,23.77
2023-12-05T03:07:47.830Z,24.60
2023-12-05T03:10:58.570Z,21.90
2023-12-05T03:14:04.736Z,23.77
2023-12-05T03:17:07.389Z,24.90
2023-12-05T03:20:10.934Z,22.60
2023-12-05T03:23:13.594Z,25.00
2023-12-05T03:26:20.376Z,21.87
2023-12-05T03:29:24.410Z,27.43
2023-12-05T03:32:27.033Z,26.83
2023-12-05T03:35:29.739Z,26.70
2023-12-05T03:38:32.560Z,29.73
2023-12-05T03:41:35.233Z,26.93
2023-12-05T03:44:39.252Z,24.63
2023-12-05T03:47:41.897Z,25.60
2023-12-05T03:50:44.534Z,27.63
2023-12-05T03:53:47.209Z,27.13
2023-12-05T03:56:49.834Z,26.00
2023-12-05T03:59:53.842Z,25.87
2023-12-05T04:02:56.810Z,27.43
2023-12-05T04:06:00.274Z,28.97
2023-12-05T04:09:05.023Z,27.83
2023-12-05T04:12:08.139Z,26.77
2023-12-05T04:15:12.332Z,27.50
2023-12-05T04:18:15.065Z,26.03
2023-12-05T04:21:19.181Z,27.73
2023-12-05T04:24:21.892Z,29.43
2023-12-05T04:27:24.970Z,34.33
2023-12-05T04:30:28.988Z,31.03
2023-12-05T04:33:31.706Z,28.50
2023-12-05T04:36:34.435Z,30.33
2023-12-05T04:39:37.317Z,30.67
2023-12-05T04:42:40.518Z,30.07
2023-12-05T04:45:46.902Z,34.63
2023-12-05T04:48:49.797Z,29.97
2023-12-05T04:51:53.326Z,30.90
2023-12-05T04:54:56.062Z,30.43
2023-12-05T04:57:58.832Z,29.27
2023-12-05T05:01:02.998Z,32.67
2023-12-05T05:04:06.233Z,33.43
2023-12-05T05:07:10.075Z,32.93
2023-12-05T05:10:12.725Z,34.17
2023-12-05T05:13:15.397Z,32.80
2023-12-05T05:16:19.427Z,33.33
2023-12-05T05:19:22.175Z,31.17
2023-12-05T05:22:24.824Z,33.00
2023-12-05T05:25:27.874Z,33.00
2023-12-05T05:28:30.551Z,34.73
2023-12-05T05:31:34.612Z,34.90
2023-12-05T05:34:37.294Z,34.10
2023-12-05T05:37:39.958Z,34.33
2023-12-05T05:40:43.291Z,36.07
2023-12-05T05:43:45.961Z,31.43
2023-12-05T05:46:49.977Z,35.40
2023-12-05T05:49:52.721Z,34.80
2023-12-05T05:52:55.421Z,34.77
2023-12-05T05:56:00.681Z,51.10
2023-12-05T05:59:03.433Z,37.17
2023-12-05T06:02:07.797Z,47.33
2023-12-05T06:05:10.826Z,40.83
2023-12-05T06:08:13.540Z,36.10
2023-12-05T06:11:16.195Z,39.03
2023-12-05T06:14:18.901Z,35.77
2023-12-05T06:17:22.990Z,39.87
2023-12-05T06:20:25.726Z,33.87
2023-12-05T06:23:28.348Z,40.60
2023-12-05T06:26:31.003Z,35.73
2023-12-05T06:29:33.788Z,34.50
2023-12-05T06:32:37.820Z,36.87
2023-12-05T06:35:40.501Z,35.07
2023-12-05T06:38:43.321Z,36.03
2023-12-05T06:41:46.063Z,37.57
2023-12-05T06:44:48.739Z,37.87
2023-12-05T06:47:52.837Z,39.00
2023-12-05T06:50:55.493Z,35.73
2023-12-05T06:53:58.128Z,40.03
2023-12-05T06:57:00.793Z,36.90
2023-12-05T07:00:04.965Z,35.70
2023-12-05T07:03:09.024Z,34.20
2023-12-05T07:06:11.892Z,35.53
2023-12-05T07:09:14.567Z,44.40
2023-12-05T07:12:17.246Z,35.17
2023-12-05T07:15:19.970Z,35.70
2023-12-05T07:18:24.116Z,38.77
2023-12-05T07:21:26.820Z,40.60
2023-12-05T07:24:29.486Z,40.00
2023-12-05T07:27:32.608Z,35.80
2023-12-05T07:30:35.360Z,35.77
2023-12-05T07:33:39.461Z,40.27
2023-12-05T07:36:42.823Z,37.07
2023-12-05T07:39:45.685Z,36.73
2023-12-05T07:42:48.398Z,36.53
2023-12-05T07:45:51.546Z,39.37
2023-12-05T07:48:55.625Z,36.83
2023-12-05T07:51:58.552Z,37.77
2023-12-05T07:55:01.242Z,39.33
2023-12-05T07:58:03.907Z,37.10
2023-12-05T08:01:07.227Z,38.90
2023-12-05T08:04:11.285Z,37.20
2023-12-05T08:07:13.994Z,34.03
2023-12-05T08:10:18.237Z,38.80
2023-12-05T08:13:20.892Z,38.97
2023-12-05T08:16:23.543Z,39.63
2023-12-05T08:19:27.579Z,36.17
2023-12-05T08:22:30.252Z,36.80
2023-12-05T08:25:32.905Z,40.57
2023-12-05T08:28:35.756Z,33.87
2023-12-05T08:31:39.203Z,40.63
2023-12-05T08:34:43.294Z,39.57
2023-12-05T08:37:46.040Z,36.37
2023-12-05T08:40:48.670Z,37.03
2023-12-05T08:43:51.337Z,39.83
2023-12-05T08:46:53.997Z,37.43
2023-12-05T08:49:58.039Z,36.20
2023-12-05T08:53:00.768Z,42.43
2023-12-05T08:56:05.268Z,42.90
2023-12-05T08:59:07.990Z,40.10
2023-12-05T09:02:10.744Z,35.13
2023-12-05T09:05:14.871Z,37.37
2023-12-05T09:08:17.720Z,33.70
2023-12-05T09:11:20.483Z,37.47
2023-12-05T09:14:23.117Z,39.20
2023-12-05T09:17:25.772Z,39.10
2023-12-05T09:20:30.007Z,43.93
2023-12-05T09:23:33.029Z,38.63
2023-12-05T09:26:35.807Z,40.23
2023-12-05T09:29:49.609Z,36.73
2023-12-05T09:32:54.421Z,38.17
2023-12-05T09:35:58.762Z,39.53
2023-12-05T09:39:01.399Z,39.77
2023-12-05T09:42:07.887Z,39.70
2023-12-05T09:45:18.143Z,38.13
2023-12-05T09:48:23.531Z,36.67
2023-12-05T09:51:27.927Z,38.33
2023-12-05T09:54:31.408Z,42.70
2023-12-05T09:57:34.426Z,38.77
2023-12-05T10:00:37.153Z,37.90
2023-12-05T10:03:41.293Z,41.50
2023-12-05T10:06:47.013Z,38.37
2023-12-05T10:09:51.995Z,34.23
2023-12-05T10:12:55.850Z,43.70
2023-12-05T10:16:00.412Z,37.77
2023-12-05T10:19:03.533Z,41.87
2023-12-05T10:22:08.015Z,41.23
2023-12-05T10:25:10.747Z,40.17
2023-12-05T10:28:13.843Z,39.67
2023-12-05T10:31:17.469Z,36.17
2023-12-05T10:34:20.163Z,38.80
2023-12-05T10:37:25.211Z,37.83
2023-12-05T10:40:28.000Z,37.97
2023-12-05T10:43:30.699Z,40.17
2023-12-05T10:46:37.830Z,37.43
2023-12-05T10:49:42.702Z,33.00
2023-12-05T10:52:46.738Z,39.40
2023-12-05T10:55:49.463Z,37.33
2023-12-05T10:58:54.861Z,37.17
2023-12-05T11:01:57.894Z,31.97
2023-12-05T11:05:05.541Z,33.73
2023-12-05T11:08:09.718Z,38.30
2023-12-05T11:11:14.267Z,34.77
2023-12-05T11:14:18.361Z,40.27
2023-12-05T11:17:26.105Z,35.87
2023-12-05T11:20:51.773Z,39.80
2023-12-05T11:24:18.833Z,34.93
2023-12-05T11:27:34.403Z,34.70
2023-12-05T11:30:54.775Z,38.57
2023-12-05T11:34:28.120Z,39.23
2023-12-05T11:37:48.199Z,36.57
2023-12-05T11:41:14.412Z,34.57
2023-12-05T11:44:21.284Z,36.83
2023-12-05T11:47:25.839Z,34.93
2023-12-05T11:50:28.473Z,37.20
2023-12-05T11:53:32.000Z,37.90
2023-12-05T11:56:36.161Z,36.23
2023-12-05T11:59:40.704Z,31.70
2023-12-05T12:02:45.179Z,35.03
2023-12-05T12:05:50.021Z,36.53
2023-12-05T12:08:57.261Z,33.03
2023-12-05T12:12:01.930Z,36.57
2023-12-05T12:15:05.261Z,37.10
2023-12-05T12:18:08.036Z,32.80
2023-12-05T12:21:10.921Z,33.03
2023-12-05T12:24:20.695Z,35.37
2023-12-05T12:27:24.806Z,35.83
2023-12-05T12:30:36.399Z,35.87
2023-12-05T12:33:39.528Z,32.10
2023-12-05T12:36:43.756Z,33.83
2023-12-05T12:39:46.937Z,32.73
2023-12-05T12:42:55.712Z,32.00
2023-12-05T12:45:58.904Z,33.23
2023-12-05T12:49:04.201Z,35.40
2023-12-05T12:52:07.578Z,33.97
2023-12-05T12:55:11.303Z,35.73
2023-12-05T12:58:15.313Z,33.77
2023-12-05T13:01:21.278Z,33.20
2023-12-05T13:04:25.947Z,32.73
2023-12-05T13:07:31.471Z,32.77
2023-12-05T13:10:34.244Z,31.93
2023-12-05T13:13:39.711Z,31.00
2023-12-05T13:16:43.725Z,31.83
2023-12-05T13:19:46.496Z,32.43
2023-12-05T13:22:49.749Z,30.73
2023-12-05T13:25:52.487Z,32.87
2023-12-05T13:28:57.434Z,29.00
2023-12-05T13:32:00.536Z,31.77
2023-12-05T13:35:03.334Z,32.47
2023-12-05T13:38:08.601Z,30.50
2023-12-05T13:41:11.396Z,31.80
2023-12-05T13:44:15.484Z,30.17
2023-12-05T13:47:18.206Z,32.60
2023-12-05T13:50:21.342Z,31.23
2023-12-05T13:53:24.920Z,30.10
2023-12-05T13:56:27.811Z,31.40
2023-12-05T13:59:32.812Z,28.63
2023-12-05T14:02:35.442Z,31.10
2023-12-05T14:05:38.275Z,30.77
2023-12-05T14:08:41.057Z,29.80
2023-12-05T14:11:45.186Z,29.90
2023-12-05T14:14:49.204Z,29.23
2023-12-05T14:17:51.921Z,33.47
2023-12-05T14:20:55.175Z,30.00
2023-12-05T14:23:58.694Z,30.80
2023-12-05T14:27:01.434Z,30.67
2023-12-05T14:30:06.405Z,30.93
2023-12-05T14:33:09.169Z,27.77
2023-12-05T14:36:12.190Z,31.33
2023-12-05T14:39:18.215Z,30.43
2023-12-05T14:42:20.865Z,32.70
2023-12-05T14:45:26.589Z,33.50
2023-12-05T14:48:29.676Z,31.23
2023-12-05T14:51:32.369Z,32.90
2023-12-05T14:54:35.097Z,28.13
2023-12-05T14:57:38.280Z,36.93
2023-12-05T15:00:42.679Z,33.87
2023-12-05T15:03:45.542Z,36.80
2023-12-05T15:06:48.299Z,36.77
2023-12-05T15:09:51.101Z,37.47
2023-12-05T15:12:57.081Z,37.67
2023-12-05T15:16:01.175Z,36.40
2023-12-05T15:19:03.971Z,43.33
2023-12-05T15:22:06.726Z,41.27
2023-12-05T15:25:10.029Z,40.83
2023-12-05T15:28:14.515Z,41.00
2023-12-05T15:31:19.174Z,38.77
2023-12-05T15:34:22.388Z,41.37
2023-12-05T15:37:25.320Z,40.63
2023-12-05T15:40:27.940Z,39.30
2023-12-05T15:43:30.572Z,37.17
2023-12-05T15:46:34.809Z,36.80
2023-12-05T15:49:38.191Z,39.27
2023-12-05T15:52:41.713Z,37.43
2023-12-05T15:55:45.081Z,40.43
2023-12-05T15:58:47.770Z,39.00
2023-12-05T16:01:51.859Z,43.77
2023-12-05T16:04:54.577Z,46.17
2023-12-05T16:07:57.196Z,37.97
2023-12-05T16:10:59.872Z,39.20
2023-12-05T16:14:02.789Z,46.93
2023-12-05T16:17:06.995Z,44.60
2023-12-05T16:20:10.358Z,40.83
2023-12-05T16:23:13.021Z,39.37
2023-12-05T16:26:15.656Z,43.10
2023-12-05T16:29:18.917Z,40.90
2023-12-05T16:32:23.292Z,39.90
2023-12-05T16:35:26.595Z,38.60
2023-12-05T16:38:29.323Z,39.07
2023-12-05T16:41:34.866Z,40.13
2023-12-05T16:44:39.698Z,49.67
2023-12-05T16:47:43.733Z,38.20
2023-12-05T16:50:46.395Z,39.97
2023-12-05T16:53:49.029Z,42.88
2023-12-05T16:56:52.456Z,39.20
2023-12-05T16:59:55.117Z,42.20
2023-12-05T17:02:59.186Z,42.43
2023-12-05T17:06:02.407Z,37.60
2023-12-05T17:09:05.750Z,42.67
2023-12-05T17:12:09.020Z,41.43
2023-12-05T17:15:11.923Z,45.23
2023-12-05T17:18:15.905Z,37.63
2023-12-05T17:21:18.620Z,36.17
2023-12-05T17:24:21.279Z,41.33
2023-12-05T17:27:25.363Z,39.63
2023-12-05T17:30:28.122Z,39.00
2023-12-05T17:33:32.272Z,46.33
2023-12-05T17:36:35.027Z,40.47
2023-12-05T17:39:37.705Z,45.13
2023-12-05T17:42:40.429Z,41.67
2023-12-05T17:45:43.168Z,38.23
2023-12-05T17:48:47.240Z,42.97
2023-12-05T17:51:49.981Z,43.03
2023-12-05T17:54:52.707Z,39.07
2023-12-05T17:57:56.258Z,42.17
2023-12-05T18:00:59.044Z,40.37
2023-12-05T18:04:03.412Z,46.67
2023-12-05T18:07:50.625Z,41.47
2023-12-05T18:10:28.942Z,45.87
2023-12-05T18:13:31.568Z,43.27
2023-12-05T18:16:34.256Z,50.30
2023-12-05T18:19:44.787Z,43.20
2023-12-05T18:22:48.525Z,41.63
2023-12-05T18:25:51.186Z,44.37
2023-12-05T18:28:53.873Z,42.97
2023-12-05T18:31:56.528Z,41.20
2023-12-05T18:35:01.656Z,39.60
2023-12-05T18:38:04.497Z,42.03
2023-12-05T18:41:07.401Z,47.53
2023-12-05T18:44:10.033Z,39.30
2023-12-05T18:47:13.492Z,43.83
2023-12-05T18:50:18.637Z,41.03
2023-12-05T18:53:21.495Z,48.03
2023-12-05T18:56:24.372Z,36.20
2023-12-05T18:59:27.485Z,39.33
2023-12-05T19:02:30.442Z,38.67
2023-12-05T19:05:34.927Z,38.83
2023-12-05T19:08:38.233Z,42.43
2023-12-05T19:11:40.888Z,39.63
2023-12-05T19:14:43.973Z,38.57
2023-12-05T19:17:46.963Z,38.27
2023-12-05T19:20:51.031Z,40.03
2023-12-05T19:23:53.666Z,37.97
2023-12-05T19:26:58.076Z,45.27
2023-12-05T19:30:00.800Z,37.87
2023-12-05T19:33:03.683Z,46.20
2023-12-05T19:36:08.797Z,43.90
2023-12-05T19:39:11.800Z,40.70
2023-12-05T19:42:18.576Z,41.80
2023-12-05T19:45:21.309Z,39.17
2023-12-05T19:48:24.041Z,42.40
2023-12-05T19:51:28.912Z,40.40
2023-12-05T19:54:31.623Z,46.77
2023-12-05T19:57:34.462Z,38.87
2023-12-05T20:00:37.250Z,40.20
2023-12-05T20:03:40.019Z,37.63
2023-12-05T20:06:44.039Z,43.37
2023-12-05T20:09:46.851Z,36.37
2023-12-05T20:12:49.561Z,35.60
2023-12-05T20:15:52.298Z,39.07
2023-12-05T20:18:55.195Z,36.10
2023-12-05T20:21:59.463Z,39.23
2023-12-05T20:25:02.198Z,36.83
2023-12-05T20:28:05.343Z,34.70
2023-12-05T20:31:08.181Z,37.07
2023-12-05T20:34:10.930Z,35.80
2023-12-05T20:37:15.235Z,33.83
2023-12-05T20:40:18.215Z,34.77
2023-12-05T20:43:21.070Z,33.50
2023-12-05T20:46:23.736Z,35.37
2023-12-05T20:49:26.566Z,34.87
2023-12-05T20:52:30.631Z,35.50
2023-12-05T20:55:33.569Z,35.27
2023-12-05T20:58:36.837Z,35.37
2023-12-05T21:01:39.988Z,35.20
2023-12-05T21:04:42.811Z,33.03
2023-12-05T21:07:46.886Z,34.77
2023-12-05T21:10:49.528Z,34.57
2023-12-05T21:13:52.187Z,33.30
2023-12-05T21:16:54.818Z,35.57
2023-12-05T21:19:57.459Z,33.97
2023-12-05T21:23:01.650Z,36.57
2023-12-05T21:26:04.379Z,32.33
2023-12-05T21:29:07.049Z,36.27
2023-12-05T21:32:09.719Z,46.70
2023-12-05T21:35:14.681Z,34.77
2023-12-05T21:38:19.232Z,33.77
2023-12-05T21:41:21.892Z,37.93
2023-12-05T21:44:24.562Z,37.80
2023-12-05T21:47:27.270Z,40.33
2023-12-05T21:50:29.957Z,40.50
2023-12-05T21:53:34.416Z,38.77
2023-12-05T21:56:37.092Z,37.07
2023-12-05T21:59:39.702Z,35.83
2023-12-05T22:02:42.457Z,42.10
2023-12-05T22:05:45.242Z,42.93
2023-12-05T22:08:49.328Z,42.47
2023-12-05T22:11:51.990Z,41.93
2023-12-05T22:14:54.625Z,41.10
2023-12-05T22:17:57.337Z,43.30
2023-12-05T22:21:00.340Z,45.67
2023-12-05T22:24:10.130Z,47.47
2023-12-05T22:27:18.913Z,50.63
2023-12-05T22:30:21.637Z,48.83
2023-12-05T22:33:24.579Z,51.53
2023-12-05T22:36:27.428Z,47.23
2023-12-05T22:39:31.784Z,53.70
2023-12-05T22:42:34.445Z,55.10
2023-12-05T22:45:37.082Z,53.77
2023-12-05T22:48:40.101Z,52.63
2023-12-05T22:51:43.000Z,50.50
2023-12-05T22:54:47.022Z,57.27
2023-12-05T22:57:52.308Z,51.77
2023-12-05T23:00:55.407Z,54.67
2023-12-05T23:03:58.173Z,56.37
2023-12-05T23:07:00.839Z,55.97
2023-12-05T23:10:05.493Z,57.93
2023-12-05T23:13:08.217Z,64.67
2023-12-05T23:16:11.030Z,54.43
2023-12-05T23:19:13.742Z,61.37
2023-12-05T23:22:16.499Z,60.10
2023-12-05T23:25:20.791Z,63.53
2023-12-05T23:28:25.856Z,57.00
2023-12-05T23:31:28.934Z,60.37
2023-12-05T23:34:31.743Z,59.70
2023-12-05T23:37:34.622Z,60.47
2023-12-05T23:40:38.642Z,59.57
2023-12-05T23:43:41.257Z,54.40
2023-12-05T23:46:43.901Z,57.17
2023-12-05T23:49:46.603Z,61.37
2023-12-05T23:52:50.003Z,58.23
2023-12-05T23:55:53.998Z,57.30
2023-12-05T23:58:56.652Z,58.03
